sensor_id;sensor_type;location;lat;lon;timestamp;P1;durP1;ratioP1;P2;durP2;ratioP2
52922;SDS011;38796;42.702;23.306;2023-03-20T00:00:29;16.65;;;8.60;;
52922;SDS011;38796;42.702;23.306;2023-03-20T00:02:28;19.48;;;9.57;;
52922;SDS011;38796;42.702;23.306;2023-03-20T00:04:26;15.60;;;7.93;;
52922;SDS011;38796;42.702;23.306;2023-03-20T00:06:25;29.65;;;8.20;;
52922;SDS011;38796;42.702;23.306;2023-03-20T00:08:24;14.25;;;7.40;;
52922;SDS011;38796;42.702;23.306;2023-03-20T00:10:26;22.73;;;8.48;;
52922;SDS011;38796;42.702;23.306;2023-03-20T00:12:27;19.85;;;8.82;;
52922;SDS011;38796;42.702;23.306;2023-03-20T00:14:24;6.18;;;5.60;;
52922;SDS011;38796;42.702;23.306;2023-03-20T00:16:22;7.28;;;5.43;;
52922;SDS011;38796;42.702;23.306;2023-03-20T00:18:21;10.95;;;5.80;;
52922;SDS011;38796;42.702;23.306;2023-03-20T00:20:20;17.50;;;7.47;;
52922;SDS011;38796;42.702;23.306;2023-03-20T00:22:18;14.23;;;5.88;;
52922;SDS011;38796;42.702;23.306;2023-03-20T00:24:16;6.43;;;5.55;;
52922;SDS011;38796;42.702;23.306;2023-03-20T00:26:14;9.25;;;4.90;;
52922;SDS011;38796;42.702;23.306;2023-03-20T00:30:37;14.98;;;6.15;;
52922;SDS011;38796;42.702;23.306;2023-03-20T00:32:35;13.05;;;5.90;;
52922;SDS011;38796;42.702;23.306;2023-03-20T00:34:33;7.65;;;5.30;;
52922;SDS011;38796;42.702;23.306;2023-03-20T00:36:31;14.55;;;6.95;;
52922;SDS011;38796;42.702;23.306;2023-03-20T00:38:29;12.25;;;5.57;;
52922;SDS011;38796;42.702;23.306;2023-03-20T00:40:28;10.23;;;6.38;;
52922;SDS011;38796;42.702;23.306;2023-03-20T00:42:27;9.48;;;4.88;;
52922;SDS011;38796;42.702;23.306;2023-03-20T00:44:25;14.23;;;7.18;;
52922;SDS011;38796;42.702;23.306;2023-03-20T00:46:25;13.60;;;6.75;;
52922;SDS011;38796;42.702;23.306;2023-03-20T00:48:23;16.80;;;5.40;;
52922;SDS011;38796;42.702;23.306;2023-03-20T00:50:22;5.45;;;3.97;;
52922;SDS011;38796;42.702;23.306;2023-03-20T00:52:21;12.50;;;5.80;;
52922;SDS011;38796;42.702;23.306;2023-03-20T00:54:20;5.90;;;4.78;;
52922;SDS011;38796;42.702;23.306;2023-03-20T00:58:30;10.68;;;6.90;;
52922;SDS011;38796;42.702;23.306;2023-03-20T01:00:33;11.65;;;5.30;;
52922;SDS011;38796;42.702;23.306;2023-03-20T01:02:34;13.82;;;4.70;;
52922;SDS011;38796;42.702;23.306;2023-03-20T01:04:33;10.95;;;5.55;;
52922;SDS011;38796;42.702;23.306;2023-03-20T01:06:32;7.22;;;3.75;;
52922;SDS011;38796;42.702;23.306;2023-03-20T01:08:30;10.55;;;5.95;;
52922;SDS011;38796;42.702;23.306;2023-03-20T01:10:28;6.07;;;4.18;;
52922;SDS011;38796;42.702;23.306;2023-03-20T01:12:27;11.30;;;4.55;;
52922;SDS011;38796;42.702;23.306;2023-03-20T01:14:25;9.27;;;4.45;;
52922;SDS011;38796;42.702;23.306;2023-03-20T01:16:24;9.38;;;4.95;;
52922;SDS011;38796;42.702;23.306;2023-03-20T01:18:24;10.50;;;5.32;;
52922;SDS011;38796;42.702;23.306;2023-03-20T01:20:23;9.90;;;5.05;;
52922;SDS011;38796;42.702;23.306;2023-03-20T01:22:22;7.93;;;4.60;;
52922;SDS011;38796;42.702;23.306;2023-03-20T01:24:19;6.80;;;3.78;;
52922;SDS011;38796;42.702;23.306;2023-03-20T01:26:19;4.97;;;4.07;;
52922;SDS011;38796;42.702;23.306;2023-03-20T01:28:18;16.45;;;4.55;;
52922;SDS011;38796;42.702;23.306;2023-03-20T01:30:18;10.15;;;3.63;;
52922;SDS011;38796;42.702;23.306;2023-03-20T01:32:17;7.10;;;3.75;;
52922;SDS011;38796;42.702;23.306;2023-03-20T01:34:19;8.07;;;4.47;;
52922;SDS011;38796;42.702;23.306;2023-03-20T01:36:19;7.70;;;5.78;;
52922;SDS011;38796;42.702;23.306;2023-03-20T01:38:19;14.38;;;4.63;;
52922;SDS011;38796;42.702;23.306;2023-03-20T01:40:29;24.63;;;4.63;;
52922;SDS011;38796;42.702;23.306;2023-03-20T01:42:30;6.43;;;3.53;;
52922;SDS011;38796;42.702;23.306;2023-03-20T01:44:29;6.28;;;3.78;;
52922;SDS011;38796;42.702;23.306;2023-03-20T01:46:28;7.00;;;5.10;;
52922;SDS011;38796;42.702;23.306;2023-03-20T01:48:55;7.07;;;3.80;;
52922;SDS011;38796;42.702;23.306;2023-03-20T01:50:55;9.55;;;4.18;;
52922;SDS011;38796;42.702;23.306;2023-03-20T01:52:57;17.90;;;5.95;;
52922;SDS011;38796;42.702;23.306;2023-03-20T01:54:57;10.10;;;3.67;;
52922;SDS011;38796;42.702;23.306;2023-03-20T01:56:56;8.20;;;4.63;;
52922;SDS011;38796;42.702;23.306;2023-03-20T01:58:56;12.63;;;4.32;;
52922;SDS011;38796;42.702;23.306;2023-03-20T02:00:56;16.08;;;5.30;;
52922;SDS011;38796;42.702;23.306;2023-03-20T02:02:54;8.00;;;3.42;;
52922;SDS011;38796;42.702;23.306;2023-03-20T02:05:11;7.72;;;3.85;;
52922;SDS011;38796;42.702;23.306;2023-03-20T02:07:12;14.75;;;5.55;;
52922;SDS011;38796;42.702;23.306;2023-03-20T02:09:16;13.73;;;5.20;;
52922;SDS011;38796;42.702;23.306;2023-03-20T02:11:16;8.32;;;4.05;;
52922;SDS011;38796;42.702;23.306;2023-03-20T02:13:15;10.95;;;5.95;;
52922;SDS011;38796;42.702;23.306;2023-03-20T02:15:16;6.10;;;3.92;;
52922;SDS011;38796;42.702;23.306;2023-03-20T02:17:33;11.45;;;4.88;;
52922;SDS011;38796;42.702;23.306;2023-03-20T02:19:39;8.52;;;4.22;;
52922;SDS011;38796;42.702;23.306;2023-03-20T02:21:55;4.60;;;2.95;;
52922;SDS011;38796;42.702;23.306;2023-03-20T02:24:09;9.35;;;3.72;;
52922;SDS011;38796;42.702;23.306;2023-03-20T02:26:20;8.00;;;3.63;;
52922;SDS011;38796;42.702;23.306;2023-03-20T02:30:48;6.93;;;3.88;;
52922;SDS011;38796;42.702;23.306;2023-03-20T02:39:26;8.15;;;4.18;;
52922;SDS011;38796;42.702;23.306;2023-03-20T02:41:29;7.22;;;5.30;;
52922;SDS011;38796;42.702;23.306;2023-03-20T02:43:29;7.90;;;5.70;;
52922;SDS011;38796;42.702;23.306;2023-03-20T02:45:30;5.68;;;4.30;;
52922;SDS011;38796;42.702;23.306;2023-03-20T02:47:44;6.22;;;3.35;;
52922;SDS011;38796;42.702;23.306;2023-03-20T02:49:49;7.05;;;4.05;;
52922;SDS011;38796;42.702;23.306;2023-03-20T02:51:49;5.88;;;3.45;;
52922;SDS011;38796;42.702;23.306;2023-03-20T02:53:50;10.77;;;5.32;;
52922;SDS011;38796;42.702;23.306;2023-03-20T02:55:52;6.65;;;3.95;;
52922;SDS011;38796;42.702;23.306;2023-03-20T02:57:54;6.40;;;3.50;;
52922;SDS011;38796;42.702;23.306;2023-03-20T02:59:55;7.50;;;4.20;;
52922;SDS011;38796;42.702;23.306;2023-03-20T03:01:56;4.72;;;1.92;;
52922;SDS011;38796;42.702;23.306;2023-03-20T03:03:57;4.78;;;3.10;;
52922;SDS011;38796;42.702;23.306;2023-03-20T03:05:58;6.18;;;3.90;;
52922;SDS011;38796;42.702;23.306;2023-03-20T03:07:57;5.70;;;3.72;;
52922;SDS011;38796;42.702;23.306;2023-03-20T03:10:02;6.35;;;4.75;;
52922;SDS011;38796;42.702;23.306;2023-03-20T03:12:03;6.55;;;3.13;;
52922;SDS011;38796;42.702;23.306;2023-03-20T03:14:03;11.23;;;2.40;;
52922;SDS011;38796;42.702;23.306;2023-03-20T03:16:04;3.45;;;2.13;;
52922;SDS011;38796;42.702;23.306;2023-03-20T03:18:04;7.43;;;3.42;;
52922;SDS011;38796;42.702;23.306;2023-03-20T03:20:05;2.58;;;1.10;;
52922;SDS011;38796;42.702;23.306;2023-03-20T03:22:05;5.47;;;3.08;;
52922;SDS011;38796;42.702;23.306;2023-03-20T03:24:03;7.18;;;2.28;;
52922;SDS011;38796;42.702;23.306;2023-03-20T03:26:01;6.18;;;2.97;;
52922;SDS011;38796;42.702;23.306;2023-03-20T03:28:04;2.47;;;1.73;;
52922;SDS011;38796;42.702;23.306;2023-03-20T03:30:05;3.15;;;2.40;;
52922;SDS011;38796;42.702;23.306;2023-03-20T03:32:04;5.10;;;3.20;;
52922;SDS011;38796;42.702;23.306;2023-03-20T03:34:03;8.13;;;3.92;;
52922;SDS011;38796;42.702;23.306;2023-03-20T03:36:03;3.40;;;2.42;;
52922;SDS011;38796;42.702;23.306;2023-03-20T03:38:02;1.98;;;1.85;;
52922;SDS011;38796;42.702;23.306;2023-03-20T03:40:05;4.65;;;3.10;;
52922;SDS011;38796;42.702;23.306;2023-03-20T03:44:08;3.67;;;3.33;;
52922;SDS011;38796;42.702;23.306;2023-03-20T03:46:09;3.95;;;2.35;;
52922;SDS011;38796;42.702;23.306;2023-03-20T03:48:10;10.48;;;3.60;;
52922;SDS011;38796;42.702;23.306;2023-03-20T03:50:11;5.38;;;3.38;;
52922;SDS011;38796;42.702;23.306;2023-03-20T03:52:12;9.05;;;4.20;;
52922;SDS011;38796;42.702;23.306;2023-03-20T03:54:13;5.90;;;3.00;;
52922;SDS011;38796;42.702;23.306;2023-03-20T03:56:18;9.20;;;3.53;;
52922;SDS011;38796;42.702;23.306;2023-03-20T03:58:18;5.22;;;3.70;;
52922;SDS011;38796;42.702;23.306;2023-03-20T04:00:20;5.28;;;3.63;;
52922;SDS011;38796;42.702;23.306;2023-03-20T04:02:19;5.45;;;3.88;;
52922;SDS011;38796;42.702;23.306;2023-03-20T04:04:18;4.03;;;2.30;;
52922;SDS011;38796;42.702;23.306;2023-03-20T04:06:18;6.85;;;4.00;;
52922;SDS011;38796;42.702;23.306;2023-03-20T04:08:19;7.05;;;3.58;;
52922;SDS011;38796;42.702;23.306;2023-03-20T04:10:17;2.63;;;1.80;;
52922;SDS011;38796;42.702;23.306;2023-03-20T04:12:23;3.78;;;3.47;;
52922;SDS011;38796;42.702;23.306;2023-03-20T04:14:24;5.60;;;3.15;;
52922;SDS011;38796;42.702;23.306;2023-03-20T04:16:24;10.35;;;3.85;;
52922;SDS011;38796;42.702;23.306;2023-03-20T04:18:23;4.68;;;2.63;;
52922;SDS011;38796;42.702;23.306;2023-03-20T04:20:21;4.38;;;2.10;;
52922;SDS011;38796;42.702;23.306;2023-03-20T04:22:19;11.52;;;2.72;;
52922;SDS011;38796;42.702;23.306;2023-03-20T04:24:17;4.03;;;2.40;;
52922;SDS011;38796;42.702;23.306;2023-03-20T04:26:15;8.60;;;2.75;;
52922;SDS011;38796;42.702;23.306;2023-03-20T04:28:13;3.88;;;2.60;;
52922;SDS011;38796;42.702;23.306;2023-03-20T04:30:41;7.75;;;3.65;;
52922;SDS011;38796;42.702;23.306;2023-03-20T04:32:44;3.20;;;2.10;;
52922;SDS011;38796;42.702;23.306;2023-03-20T04:34:48;6.63;;;2.33;;
52922;SDS011;38796;42.702;23.306;2023-03-20T04:36:57;3.47;;;2.33;;
52922;SDS011;38796;42.702;23.306;2023-03-20T04:39:10;14.80;;;6.47;;
52922;SDS011;38796;42.702;23.306;2023-03-20T04:41:08;9.05;;;5.30;;
52922;SDS011;38796;42.702;23.306;2023-03-20T04:43:06;8.43;;;5.03;;
52922;SDS011;38796;42.702;23.306;2023-03-20T04:45:05;6.55;;;3.72;;
52922;SDS011;38796;42.702;23.306;2023-03-20T04:47:06;3.70;;;2.85;;
52922;SDS011;38796;42.702;23.306;2023-03-20T04:49:09;5.70;;;2.53;;
52922;SDS011;38796;42.702;23.306;2023-03-20T04:51:07;8.68;;;4.63;;
52922;SDS011;38796;42.702;23.306;2023-03-20T04:53:12;9.60;;;4.00;;
52922;SDS011;38796;42.702;23.306;2023-03-20T04:55:11;8.00;;;3.08;;
52922;SDS011;38796;42.702;23.306;2023-03-20T04:57:09;4.07;;;2.92;;
52922;SDS011;38796;42.702;23.306;2023-03-20T04:59:08;8.38;;;2.50;;
52922;SDS011;38796;42.702;23.306;2023-03-20T05:01:06;11.90;;;4.18;;
52922;SDS011;38796;42.702;23.306;2023-03-20T05:03:04;6.10;;;3.35;;
52922;SDS011;38796;42.702;23.306;2023-03-20T05:05:03;2.85;;;2.08;;
52922;SDS011;38796;42.702;23.306;2023-03-20T05:07:04;8.05;;;3.40;;
52922;SDS011;38796;42.702;23.306;2023-03-20T05:09:15;3.70;;;2.78;;
52922;SDS011;38796;42.702;23.306;2023-03-20T05:11:14;8.95;;;4.65;;
52922;SDS011;38796;42.702;23.306;2023-03-20T05:13:31;5.78;;;3.83;;
52922;SDS011;38796;42.702;23.306;2023-03-20T05:15:49;8.20;;;3.42;;
52922;SDS011;38796;42.702;23.306;2023-03-20T05:18:06;9.90;;;5.28;;
52922;SDS011;38796;42.702;23.306;2023-03-20T05:20:22;26.23;;;5.75;;
52922;SDS011;38796;42.702;23.306;2023-03-20T05:22:30;8.25;;;3.65;;
52922;SDS011;38796;42.702;23.306;2023-03-20T05:24:39;3.20;;;3.00;;
52922;SDS011;38796;42.702;23.306;2023-03-20T05:27:01;6.95;;;3.22;;
52922;SDS011;38796;42.702;23.306;2023-03-20T05:29:12;13.65;;;5.63;;
52922;SDS011;38796;42.702;23.306;2023-03-20T05:31:11;11.82;;;6.13;;
52922;SDS011;38796;42.702;23.306;2023-03-20T05:33:27;16.48;;;5.47;;
52922;SDS011;38796;42.702;23.306;2023-03-20T05:35:38;9.10;;;4.03;;
52922;SDS011;38796;42.702;23.306;2023-03-20T05:37:46;6.68;;;4.00;;
52922;SDS011;38796;42.702;23.306;2023-03-20T05:39:54;11.13;;;4.95;;
52922;SDS011;38796;42.702;23.306;2023-03-20T05:42:04;12.30;;;3.60;;
52922;SDS011;38796;42.702;23.306;2023-03-20T05:44:32;8.57;;;4.13;;
52922;SDS011;38796;42.702;23.306;2023-03-20T05:47:02;9.07;;;5.38;;
52922;SDS011;38796;42.702;23.306;2023-03-20T05:49:21;9.57;;;5.43;;
52922;SDS011;38796;42.702;23.306;2023-03-20T05:51:39;11.52;;;6.18;;
52922;SDS011;38796;42.702;23.306;2023-03-20T05:53:52;7.60;;;5.68;;
52922;SDS011;38796;42.702;23.306;2023-03-20T05:56:01;8.70;;;5.43;;
52922;SDS011;38796;42.702;23.306;2023-03-20T05:58:08;9.85;;;4.45;;
52922;SDS011;38796;42.702;23.306;2023-03-20T06:00:30;6.90;;;3.35;;
52922;SDS011;38796;42.702;23.306;2023-03-20T06:02:47;9.43;;;4.30;;
52922;SDS011;38796;42.702;23.306;2023-03-20T06:05:14;10.20;;;4.95;;
52922;SDS011;38796;42.702;23.306;2023-03-20T06:07:20;13.98;;;4.65;;
52922;SDS011;38796;42.702;23.306;2023-03-20T06:09:27;9.40;;;4.10;;
52922;SDS011;38796;42.702;23.306;2023-03-20T06:11:26;4.28;;;3.33;;
52922;SDS011;38796;42.702;23.306;2023-03-20T06:13:25;4.25;;;3.42;;
52922;SDS011;38796;42.702;23.306;2023-03-20T06:15:22;9.60;;;4.18;;
52922;SDS011;38796;42.702;23.306;2023-03-20T06:17:27;15.75;;;6.65;;
52922;SDS011;38796;42.702;23.306;2023-03-20T06:19:31;26.13;;;7.72;;
52922;SDS011;38796;42.702;23.306;2023-03-20T06:21:29;16.90;;;6.53;;
52922;SDS011;38796;42.702;23.306;2023-03-20T06:23:29;8.98;;;4.20;;
52922;SDS011;38796;42.702;23.306;2023-03-20T06:25:30;13.75;;;4.28;;
52922;SDS011;38796;42.702;23.306;2023-03-20T06:27:28;7.45;;;4.60;;
52922;SDS011;38796;42.702;23.306;2023-03-20T06:29:27;13.55;;;5.55;;
52922;SDS011;38796;42.702;23.306;2023-03-20T06:31:34;19.50;;;7.00;;
52922;SDS011;38796;42.702;23.306;2023-03-20T06:33:37;10.50;;;4.40;;
52922;SDS011;38796;42.702;23.306;2023-03-20T06:35:37;6.78;;;2.97;;
52922;SDS011;38796;42.702;23.306;2023-03-20T06:37:44;13.95;;;6.28;;
52922;SDS011;38796;42.702;23.306;2023-03-20T06:39:50;19.95;;;3.90;;
52922;SDS011;38796;42.702;23.306;2023-03-20T06:41:48;6.88;;;3.20;;
52922;SDS011;38796;42.702;23.306;2023-03-20T06:43:51;4.65;;;3.22;;
52922;SDS011;38796;42.702;23.306;2023-03-20T06:45:50;9.73;;;4.18;;
52922;SDS011;38796;42.702;23.306;2023-03-20T06:47:50;9.73;;;4.63;;
52922;SDS011;38796;42.702;23.306;2023-03-20T06:49:49;9.43;;;3.67;;
52922;SDS011;38796;42.702;23.306;2023-03-20T06:51:49;7.82;;;3.15;;
52922;SDS011;38796;42.702;23.306;2023-03-20T06:53:52;3.80;;;2.30;;
52922;SDS011;38796;42.702;23.306;2023-03-20T06:55:56;5.72;;;2.15;;
52922;SDS011;38796;42.702;23.306;2023-03-20T06:57:54;10.65;;;3.35;;
52922;SDS011;38796;42.702;23.306;2023-03-20T06:59:52;14.27;;;4.50;;
52922;SDS011;38796;42.702;23.306;2023-03-20T07:01:50;9.65;;;3.38;;
52922;SDS011;38796;42.702;23.306;2023-03-20T07:03:49;7.35;;;3.17;;
52922;SDS011;38796;42.702;23.306;2023-03-20T07:05:52;4.57;;;3.22;;
52922;SDS011;38796;42.702;23.306;2023-03-20T07:07:51;17.33;;;7.40;;
52922;SDS011;38796;42.702;23.306;2023-03-20T07:09:49;15.00;;;6.80;;
52922;SDS011;38796;42.702;23.306;2023-03-20T07:11:49;10.52;;;4.78;;
52922;SDS011;38796;42.702;23.306;2023-03-20T07:13:47;4.53;;;2.58;;
52922;SDS011;38796;42.702;23.306;2023-03-20T07:16:24;7.85;;;3.17;;
52922;SDS011;38796;42.702;23.306;2023-03-20T07:18:22;7.25;;;2.83;;
52922;SDS011;38796;42.702;23.306;2023-03-20T07:20:20;8.55;;;4.55;;
52922;SDS011;38796;42.702;23.306;2023-03-20T07:22:20;13.45;;;5.18;;
52922;SDS011;38796;42.702;23.306;2023-03-20T07:24:19;10.50;;;4.00;;
52922;SDS011;38796;42.702;23.306;2023-03-20T07:26:17;13.43;;;4.10;;
52922;SDS011;38796;42.702;23.306;2023-03-20T07:28:16;10.23;;;5.33;;
52922;SDS011;38796;42.702;23.306;2023-03-20T07:30:20;7.77;;;3.87;;
52922;SDS011;38796;42.702;23.306;2023-03-20T07:32:19;10.27;;;4.10;;
52922;SDS011;38796;42.702;23.306;2023-03-20T07:34:19;6.67;;;3.73;;
52922;SDS011;38796;42.702;23.306;2023-03-20T07:36:18;12.27;;;4.20;;
52922;SDS011;38796;42.702;23.306;2023-03-20T07:38:16;7.07;;;3.33;;
52922;SDS011;38796;42.702;23.306;2023-03-20T07:40:21;4.53;;;3.07;;
52922;SDS011;38796;42.702;23.306;2023-03-20T07:42:24;7.63;;;3.28;;
52922;SDS011;38796;42.702;23.306;2023-03-20T07:44:29;16.23;;;7.67;;
52922;SDS011;38796;42.702;23.306;2023-03-20T07:46:27;4.63;;;1.77;;
52922;SDS011;38796;42.702;23.306;2023-03-20T07:48:26;4.73;;;2.53;;
52922;SDS011;38796;42.702;23.306;2023-03-20T07:50:24;2.97;;;1.63;;
52922;SDS011;38796;42.702;23.306;2023-03-20T07:52:22;5.47;;;3.13;;
52922;SDS011;38796;42.702;23.306;2023-03-20T07:54:21;7.18;;;2.35;;
52922;SDS011;38796;42.702;23.306;2023-03-20T07:56:19;7.87;;;4.73;;
52922;SDS011;38796;42.702;23.306;2023-03-20T07:58:17;10.97;;;4.27;;
52922;SDS011;38796;42.702;23.306;2023-03-20T08:00:17;8.57;;;3.50;;
52922;SDS011;38796;42.702;23.306;2023-03-20T08:02:16;14.93;;;4.63;;
52922;SDS011;38796;42.702;23.306;2023-03-20T08:04:14;5.03;;;2.13;;
52922;SDS011;38796;42.702;23.306;2023-03-20T08:06:15;13.63;;;3.57;;
52922;SDS011;38796;42.702;23.306;2023-03-20T08:08:13;5.13;;;2.30;;
52922;SDS011;38796;42.702;23.306;2023-03-20T08:10:11;12.50;;;4.43;;
52922;SDS011;38796;42.702;23.306;2023-03-20T08:12:09;5.23;;;2.60;;
52922;SDS011;38796;42.702;23.306;2023-03-20T08:14:07;10.57;;;3.17;;
52922;SDS011;38796;42.702;23.306;2023-03-20T08:16:07;6.13;;;2.83;;
52922;SDS011;38796;42.702;23.306;2023-03-20T08:18:05;4.30;;;2.90;;
52922;SDS011;38796;42.702;23.306;2023-03-20T08:20:03;2.87;;;2.13;;
52922;SDS011;38796;42.702;23.306;2023-03-20T08:22:02;3.33;;;2.00;;
52922;SDS011;38796;42.702;23.306;2023-03-20T08:24:01;2.87;;;1.77;;
52922;SDS011;38796;42.702;23.306;2023-03-20T08:25:59;4.10;;;1.63;;
52922;SDS011;38796;42.702;23.306;2023-03-20T08:27:57;3.23;;;1.40;;
52922;SDS011;38796;42.702;23.306;2023-03-20T08:29:54;6.10;;;2.67;;
52922;SDS011;38796;42.702;23.306;2023-03-20T08:31:54;6.00;;;2.27;;
52922;SDS011;38796;42.702;23.306;2023-03-20T08:33:53;2.10;;;1.37;;
52922;SDS011;38796;42.702;23.306;2023-03-20T08:35:55;2.97;;;1.97;;
52922;SDS011;38796;42.702;23.306;2023-03-20T08:37:53;3.13;;;1.77;;
52922;SDS011;38796;42.702;23.306;2023-03-20T08:39:51;5.47;;;1.93;;
52922;SDS011;38796;42.702;23.306;2023-03-20T08:41:49;4.50;;;1.90;;
52922;SDS011;38796;42.702;23.306;2023-03-20T08:43:47;2.23;;;1.53;;
52922;SDS011;38796;42.702;23.306;2023-03-20T08:45:45;1.87;;;1.27;;
52922;SDS011;38796;42.702;23.306;2023-03-20T08:47:47;5.10;;;1.40;;
52922;SDS011;38796;42.702;23.306;2023-03-20T08:49:45;6.90;;;3.83;;
52922;SDS011;38796;42.702;23.306;2023-03-20T08:51:43;2.70;;;1.37;;
52922;SDS011;38796;42.702;23.306;2023-03-20T08:53:42;4.23;;;1.57;;
52922;SDS011;38796;42.702;23.306;2023-03-20T08:55:40;3.60;;;1.40;;
52922;SDS011;38796;42.702;23.306;2023-03-20T08:57:38;2.23;;;1.87;;
52922;SDS011;38796;42.702;23.306;2023-03-20T08:59:36;9.50;;;2.80;;
52922;SDS011;38796;42.702;23.306;2023-03-20T09:01:34;2.13;;;1.53;;
52922;SDS011;38796;42.702;23.306;2023-03-20T09:03:46;6.03;;;1.63;;
52922;SDS011;38796;42.702;23.306;2023-03-20T09:05:44;4.20;;;1.83;;
52922;SDS011;38796;42.702;23.306;2023-03-20T09:07:42;1.50;;;1.30;;
52922;SDS011;38796;42.702;23.306;2023-03-20T09:09:40;4.03;;;1.83;;
52922;SDS011;38796;42.702;23.306;2023-03-20T09:11:38;7.57;;;2.77;;
52922;SDS011;38796;42.702;23.306;2023-03-20T09:13:36;5.30;;;2.07;;
52922;SDS011;38796;42.702;23.306;2023-03-20T09:15:34;7.40;;;2.30;;
52922;SDS011;38796;42.702;23.306;2023-03-20T09:17:33;5.57;;;3.30;;
52922;SDS011;38796;42.702;23.306;2023-03-20T09:19:32;2.33;;;2.10;;
52922;SDS011;38796;42.702;23.306;2023-03-20T09:21:30;4.60;;;2.13;;
52922;SDS011;38796;42.702;23.306;2023-03-20T09:23:28;15.67;;;2.60;;
52922;SDS011;38796;42.702;23.306;2023-03-20T09:25:27;2.23;;;1.70;;
52922;SDS011;38796;42.702;23.306;2023-03-20T09:27:25;3.73;;;1.70;;
52922;SDS011;38796;42.702;23.306;2023-03-20T09:29:23;4.67;;;1.23;;
52922;SDS011;38796;42.702;23.306;2023-03-20T09:31:21;4.47;;;2.40;;
52922;SDS011;38796;42.702;23.306;2023-03-20T09:33:19;12.13;;;3.03;;
52922;SDS011;38796;42.702;23.306;2023-03-20T09:35:19;1.90;;;1.63;;
52922;SDS011;38796;42.702;23.306;2023-03-20T09:37:17;2.67;;;1.90;;
52922;SDS011;38796;42.702;23.306;2023-03-20T09:39:15;3.47;;;1.57;;
52922;SDS011;38796;42.702;23.306;2023-03-20T09:41:15;5.20;;;2.83;;
52922;SDS011;38796;42.702;23.306;2023-03-20T09:43:16;4.93;;;1.60;;
52922;SDS011;38796;42.702;23.306;2023-03-20T09:45:17;8.60;;;2.70;;
52922;SDS011;38796;42.702;23.306;2023-03-20T09:47:17;5.47;;;2.83;;
52922;SDS011;38796;42.702;23.306;2023-03-20T09:49:20;3.13;;;1.83;;
52922;SDS011;38796;42.702;23.306;2023-03-20T09:51:25;4.27;;;2.50;;
52922;SDS011;38796;42.702;23.306;2023-03-20T09:53:28;5.33;;;2.63;;
52922;SDS011;38796;42.702;23.306;2023-03-20T09:55:30;7.47;;;2.73;;
52922;SDS011;38796;42.702;23.306;2023-03-20T09:57:31;16.97;;;2.73;;
52922;SDS011;38796;42.702;23.306;2023-03-20T09:59:31;3.70;;;2.13;;
52922;SDS011;38796;42.702;23.306;2023-03-20T10:01:32;3.13;;;2.10;;
52922;SDS011;38796;42.702;23.306;2023-03-20T10:03:42;2.60;;;2.08;;
52922;SDS011;38796;42.702;23.306;2023-03-20T10:05:41;5.73;;;3.03;;
52922;SDS011;38796;42.702;23.306;2023-03-20T10:07:42;11.50;;;2.80;;
52922;SDS011;38796;42.702;23.306;2023-03-20T10:09:41;9.50;;;2.60;;
52922;SDS011;38796;42.702;23.306;2023-03-20T10:14:09;5.50;;;2.20;;
52922;SDS011;38796;42.702;23.306;2023-03-20T10:16:13;5.07;;;2.97;;
52922;SDS011;38796;42.702;23.306;2023-03-20T10:18:16;7.13;;;3.47;;
52922;SDS011;38796;42.702;23.306;2023-03-20T10:20:18;6.43;;;2.57;;
52922;SDS011;38796;42.702;23.306;2023-03-20T10:22:21;7.83;;;3.70;;
52922;SDS011;38796;42.702;23.306;2023-03-20T10:24:24;6.83;;;2.43;;
52922;SDS011;38796;42.702;23.306;2023-03-20T10:26:23;3.13;;;1.93;;
52922;SDS011;38796;42.702;23.306;2023-03-20T10:28:22;4.57;;;2.17;;
52922;SDS011;38796;42.702;23.306;2023-03-20T10:30:23;6.27;;;2.57;;
52922;SDS011;38796;42.702;23.306;2023-03-20T10:32:23;5.77;;;3.33;;
52922;SDS011;38796;42.702;23.306;2023-03-20T10:34:29;7.93;;;1.90;;
52922;SDS011;38796;42.702;23.306;2023-03-20T10:36:33;5.10;;;2.10;;
52922;SDS011;38796;42.702;23.306;2023-03-20T10:38:37;4.80;;;2.07;;
52922;SDS011;38796;42.702;23.306;2023-03-20T10:40:38;9.07;;;2.92;;
52922;SDS011;38796;42.702;23.306;2023-03-20T10:42:37;6.10;;;2.28;;
52922;SDS011;38796;42.702;23.306;2023-03-20T10:44:37;9.55;;;2.83;;
52922;SDS011;38796;42.702;23.306;2023-03-20T10:46:37;3.50;;;2.08;;
52922;SDS011;38796;42.702;23.306;2023-03-20T10:48:38;13.18;;;1.83;;
52922;SDS011;38796;42.702;23.306;2023-03-20T10:50:39;4.13;;;1.70;;
52922;SDS011;38796;42.702;23.306;2023-03-20T10:52:39;5.82;;;2.55;;
52922;SDS011;38796;42.702;23.306;2023-03-20T10:54:39;6.35;;;2.60;;
52922;SDS011;38796;42.702;23.306;2023-03-20T10:56:39;3.63;;;2.03;;
52922;SDS011;38796;42.702;23.306;2023-03-20T10:58:39;5.27;;;2.07;;
52922;SDS011;38796;42.702;23.306;2023-03-20T11:00:38;4.70;;;1.97;;
52922;SDS011;38796;42.702;23.306;2023-03-20T11:02:37;3.87;;;2.20;;
52922;SDS011;38796;42.702;23.306;2023-03-20T11:04:35;3.03;;;1.40;;
52922;SDS011;38796;42.702;23.306;2023-03-20T11:06:34;4.43;;;1.63;;
52922;SDS011;38796;42.702;23.306;2023-03-20T11:08:38;10.20;;;1.97;;
52922;SDS011;38796;42.702;23.306;2023-03-20T11:10:37;3.67;;;2.20;;
52922;SDS011;38796;42.702;23.306;2023-03-20T11:12:38;4.80;;;1.63;;
52922;SDS011;38796;42.702;23.306;2023-03-20T11:14:38;22.83;;;9.60;;
52922;SDS011;38796;42.702;23.306;2023-03-20T11:16:36;9.87;;;4.70;;
52922;SDS011;38796;42.702;23.306;2023-03-20T11:18:36;9.83;;;6.07;;
52922;SDS011;38796;42.702;23.306;2023-03-20T11:20:36;6.73;;;2.73;;
52922;SDS011;38796;42.702;23.306;2023-03-20T11:22:34;4.13;;;2.33;;
52922;SDS011;38796;42.702;23.306;2023-03-20T11:24:34;18.97;;;5.70;;
52922;SDS011;38796;42.702;23.306;2023-03-20T11:26:34;8.00;;;1.97;;
52922;SDS011;38796;42.702;23.306;2023-03-20T11:28:34;3.67;;;2.10;;
52922;SDS011;38796;42.702;23.306;2023-03-20T11:30:32;5.40;;;2.40;;
52922;SDS011;38796;42.702;23.306;2023-03-20T11:32:53;11.47;;;5.20;;
52922;SDS011;38796;42.702;23.306;2023-03-20T11:34:52;6.77;;;2.77;;
52922;SDS011;38796;42.702;23.306;2023-03-20T11:36:53;4.40;;;2.67;;
52922;SDS011;38796;42.702;23.306;2023-03-20T11:39:05;5.80;;;1.70;;
52922;SDS011;38796;42.702;23.306;2023-03-20T11:41:04;4.13;;;1.40;;
52922;SDS011;38796;42.702;23.306;2023-03-20T11:43:03;10.90;;;3.93;;
52922;SDS011;38796;42.702;23.306;2023-03-20T11:45:03;7.00;;;1.40;;
52922;SDS011;38796;42.702;23.306;2023-03-20T11:47:02;7.03;;;2.53;;
52922;SDS011;38796;42.702;23.306;2023-03-20T11:49:01;11.87;;;5.87;;
52922;SDS011;38796;42.702;23.306;2023-03-20T11:51:01;10.83;;;2.50;;
52922;SDS011;38796;42.702;23.306;2023-03-20T11:53:00;9.57;;;4.77;;
52922;SDS011;38796;42.702;23.306;2023-03-20T11:54:59;2.47;;;1.10;;
52922;SDS011;38796;42.702;23.306;2023-03-20T11:56:58;1.60;;;0.60;;
52922;SDS011;38796;42.702;23.306;2023-03-20T11:58:56;2.07;;;0.83;;
52922;SDS011;38796;42.702;23.306;2023-03-20T12:00:56;4.77;;;1.90;;
52922;SDS011;38796;42.702;23.306;2023-03-20T12:02:54;2.67;;;1.60;;
52922;SDS011;38796;42.702;23.306;2023-03-20T12:04:53;2.07;;;1.50;;
52922;SDS011;38796;42.702;23.306;2023-03-20T12:06:56;3.50;;;0.67;;
52922;SDS011;38796;42.702;23.306;2023-03-20T12:08:55;13.23;;;1.43;;
52922;SDS011;38796;42.702;23.306;2023-03-20T12:10:56;7.13;;;0.60;;
52922;SDS011;38796;42.702;23.306;2023-03-20T12:12:56;2.20;;;0.73;;
52922;SDS011;38796;42.702;23.306;2023-03-20T12:14:58;1.03;;;0.33;;
52922;SDS011;38796;42.702;23.306;2023-03-20T12:17:04;13.17;;;0.70;;